Time;durP1;ratioP1;P1;durP2;ratioP2;P2;SDS_P1;SDS_P2;PMS_P1;PMS_P2;Temp;Humidity;BMP_temperature;BMP_pressure;BME280_temperature;BME280_humidity;BME280_pressure;Samples;Min_cycle;Max_cycle;Signal;HPM_P1;HPM_P2
2021/06/22 00:01:47;;;;;;;7.70;4.13;;;;;;;12.55;88.11;90418.97;4948986;28;20404;-86
2021/06/22 00:04:13;;;;;;;7.93;4.20;;;;;;;12.46;88.20;90412.47;4965044;28;20032;-85
2021/06/22 00:06:39;;;;;;;8.77;3.92;;;;;;;12.37;88.39;90405.63;4948837;28;20026;-85
2021/06/22 00:09:05;;;;;;;10.32;3.88;;;;;;;12.38;88.44;90401.16;4980833;28;20033;-85
2021/06/22 00:11:32;;;;;;;6.70;3.75;;;;;;;12.38;88.73;90398.53;4980514;28;20524;-86
2021/06/22 00:13:59;;;;;;;5.85;3.90;;;;;;;12.21;88.32;90384.09;4977878;28;20503;-86
2021/06/22 00:16:25;;;;;;;7.82;4.20;;;;;;;12.34;88.12;90392.50;4968057;28;20033;-86
2021/06/22 00:18:52;;;;;;;8.60;4.20;;;;;;;12.22;88.38;90388.22;4984133;28;20033;-86
2021/06/22 00:21:22;;;;;;;10.00;4.15;;;;;;;12.26;88.45;90393.50;5010112;28;20105;-85
2021/06/22 00:23:48;;;;;;;4.85;3.50;;;;;;;12.39;88.35;90400.78;5023289;28;20034;-86
2021/06/22 00:26:15;;;;;;;6.70;3.90;;;;;;;12.47;87.84;90406.13;5021639;28;20021;-86
2021/06/22 00:28:41;;;;;;;6.13;3.65;;;;;;;12.46;88.06;90412.47;5038604;28;20195;-85
2021/06/22 00:31:17;;;;;;;7.25;3.70;;;;;;;12.42;88.40;90415.78;4985898;28;20030;-87
2021/06/22 00:33:52;;;;;;;6.25;3.80;;;;;;;12.40;88.25;90422.44;4999846;28;20029;-85
2021/06/22 00:36:25;;;;;;;8.00;3.88;;;;;;;12.54;87.38;90434.97;5001673;28;20026;-86
2021/06/22 00:38:57;;;;;;;6.28;3.38;;;;;;;12.46;87.56;90435.97;4985185;28;20057;-86
2021/06/22 00:41:25;;;;;;;6.20;2.58;;;;;;;12.65;85.32;90428.81;5016666;28;20022;-86
2021/06/22 00:44:25;;;;;;;5.63;2.10;;;;;;;12.46;86.08;90425.53;4985100;28;20018;-86
2021/06/22 00:46:55;;;;;;;5.63;2.00;;;;;;;12.41;87.50;90432.56;5018355;28;20522;-85
2021/06/22 00:49:22;;;;;;;3.30;2.15;;;;;;;12.39;87.38;90421.69;4982095;28;20030;-87
2021/06/22 00:51:51;;;;;;;3.25;1.95;;;;;;;12.39;86.39;90420.94;4950683;28;20037;-86
2021/06/22 00:54:21;;;;;;;4.20;2.50;;;;;;;12.35;87.43;90420.91;4971264;28;20058;-87
2021/06/22 00:56:48;;;;;;;4.13;2.20;;;;;;;12.24;87.36;90417.38;4951814;28;20587;-86
2021/06/22 00:59:16;;;;;;;5.63;1.63;;;;;;;12.29;87.47;90437.97;4962347;28;20022;-86
2021/06/22 01:01:42;;;;;;;5.15;1.98;;;;;;;12.25;86.50;90431.19;4978436;28;20404;-86
2021/06/22 01:04:09;;;;;;;5.82;1.80;;;;;;;12.29;87.26;90437.97;4962144;28;20499;-86
2021/06/22 01:06:35;;;;;;;2.83;1.50;;;;;;;12.34;87.55;90434.31;4993225;28;20053;-86
2021/06/22 01:09:05;;;;;;;4.45;1.40;;;;;;;12.34;87.51;90429.84;4976215;28;20025;-86
2021/06/22 01:11:31;;;;;;;4.15;1.60;;;;;;;12.28;87.45;90435.72;4978050;28;20050;-86
2021/06/22 01:13:57;;;;;;;5.50;1.60;;;;;;;12.29;86.92;90427.50;4945755;28;20419;-86
2021/06/22 01:16:25;;;;;;;2.45;1.50;;;;;;;12.31;85.27;90438.38;4945297;28;20428;-86
2021/06/22 01:19:08;;;;;;;2.08;1.15;;;;;;;12.34;85.58;90434.31;4978191;28;20022;-86
2021/06/22 01:21:38;;;;;;;3.63;1.55;;;;;;;12.37;86.50;90439.59;4978613;28;20022;-86
2021/06/22 01:24:13;;;;;;;4.40;1.60;;;;;;;12.29;87.52;90435.34;4962358;28;20480;-86
2021/06/22 01:26:49;;;;;;;3.90;1.45;;;;;;;12.27;86.97;90432.34;4962340;28;20050;-86
2021/06/22 01:29:19;;;;;;;3.08;1.50;;;;;;;12.31;87.75;90432.41;4978409;28;20101;-84
2021/06/22 01:31:47;;;;;;;5.30;1.60;;;;;;;12.32;87.16;90437.25;4961366;28;20032;-86
2021/06/22 01:34:14;;;;;;;3.20;1.30;;;;;;;12.26;86.40;90433.47;4961692;28;20408;-86
2021/06/22 01:36:41;;;;;;;5.35;1.70;;;;;;;12.19;87.49;90439.31;4945698;28;20116;-86
2021/06/22 01:39:12;;;;;;;7.05;1.83;;;;;;;12.23;87.46;90433.41;4977678;28;20048;-86
2021/06/22 01:41:39;;;;;;;3.90;1.92;;;;;;;12.16;88.79;90428.81;4977301;28;20028;-86
2021/06/22 01:44:05;;;;;;;2.78;1.65;;;;;;;12.19;88.05;90422.88;4993528;28;20037;-86
2021/06/22 01:46:31;;;;;;;2.47;1.42;;;;;;;12.22;88.05;90416.94;4977234;28;20030;-86
2021/06/22 01:48:58;;;;;;;4.32;1.50;;;;;;;12.15;88.30;90417.59;4962289;28;20022;-87
2021/06/22 01:51:24;;;;;;;4.55;1.60;;;;;;;12.16;87.87;90405.31;4961492;28;20023;-86
2021/06/22 01:54:02;;;;;;;3.75;1.30;;;;;;;12.12;88.35;90401.84;4960728;28;20034;-86
2021/06/22 01:56:40;;;;;;;5.03;1.77;;;;;;;12.25;89.51;90408.41;4976883;28;20038;-86
2021/06/22 01:59:13;;;;;;;5.15;1.40;;;;;;;12.31;88.51;90396.56;4986701;28;20026;-84
2021/06/22 02:01:49;;;;;;;6.05;1.60;;;;;;;12.14;88.95;90389.22;4986124;28;20010;-85
2021/06/22 02:04:20;;;;;;;2.33;1.30;;;;;;;12.23;87.81;90391.59;4957694;28;20488;-85
2021/06/22 02:06:49;;;;;;;5.53;1.52;;;;;;;12.22;88.26;90385.59;4944360;28;20030;-86
2021/06/22 02:09:16;;;;;;;3.05;1.70;;;;;;;12.19;88.87;90371.41;4944010;28;20080;-84
2021/06/22 02:11:44;;;;;;;3.63;1.50;;;;;;;12.20;88.42;90382.59;5011160;23;20491;-87
2021/06/22 02:14:11;;;;;;;5.18;1.50;;;;;;;12.26;88.12;90369.97;5012415;28;20029;-86
2021/06/22 02:16:38;;;;;;;4.80;1.80;;;;;;;12.21;88.11;90368.44;4979073;28;20037;-87
2021/06/22 02:19:05;;;;;;;2.35;1.40;;;;;;;12.29;87.99;90353.59;4979145;28;20084;-85
2021/06/22 02:21:32;;;;;;;4.57;1.50;;;;;;;12.30;89.18;90350.66;4978654;28;20467;-87
2021/06/22 02:23:59;;;;;;;4.70;1.45;;;;;;;12.21;88.82;90347.53;5012426;28;20033;-87
2021/06/22 02:26:26;;;;;;;3.85;1.50;;;;;;;12.22;89.05;90354.25;4995079;28;20022;-87
2021/06/22 02:28:51;;;;;;;4.13;1.50;;;;;;;12.22;88.84;90351.63;4978344;28;20057;-87
2021/06/22 02:31:18;;;;;;;3.92;1.60;;;;;;;12.20;89.15;90346.03;4994487;28;20080;-87
2021/06/22 02:33:45;;;;;;;7.07;1.98;;;;;;;12.16;89.31;90340.00;5012235;28;20109;-86
2021/06/22 02:36:14;;;;;;;8.23;3.15;;;;;;;12.14;89.53;90331.75;5010382;28;20399;-88
2021/06/22 02:38:52;;;;;;;2.50;1.50;;;;;;;12.22;88.75;90328.13;4994485;28;20045;-87
2021/06/22 02:41:29;;;;;;;2.88;1.65;;;;;;;12.22;88.29;90330.75;4979556;28;20446;-87
2021/06/22 02:44:03;;;;;;;6.50;1.70;;;;;;;12.19;88.48;90328.81;5012091;28;20045;-87
2021/06/22 02:46:32;;;;;;;3.08;1.55;;;;;;;12.12;89.19;90334.72;4994518;28;20494;-87
2021/06/22 02:49:00;;;;;;;4.85;2.15;;;;;;;12.07;89.30;90326.44;4995445;28;20064;-87
2021/06/22 02:51:27;;;;;;;2.58;1.50;;;;;;;12.15;88.83;90325.41;5010536;28;20072;-86
2021/06/22 02:53:54;;;;;;;3.17;1.70;;;;;;;12.10;89.57;90325.72;4988715;28;20029;-86
2021/06/22 02:56:20;;;;;;;4.50;1.70;;;;;;;12.13;89.48;90314.59;4978332;28;20037;-87
2021/06/22 02:58:47;;;;;;;5.55;1.58;;;;;;;12.11;89.46;90316.78;4990785;28;20038;-87
2021/06/22 03:01:14;;;;;;;4.55;1.63;;;;;;;12.11;89.27;90312.31;4974472;28;20026;-86
2021/06/22 03:03:40;;;;;;;3.25;1.58;;;;;;;12.15;89.14;90312.34;4974988;28;20033;-87
2021/06/22 03:06:07;;;;;;;4.72;1.75;;;;;;;12.21;88.84;90313.56;4958827;28;20022;-87
2021/06/22 03:08:35;;;;;;;4.28;2.08;;;;;;;12.19;88.73;90305.31;4974858;28;20041;-88
2021/06/22 03:11:01;;;;;;;4.07;1.85;;;;;;;12.15;88.90;90301.91;4974139;28;20030;-86
2021/06/22 03:13:37;;;;;;;4.20;1.63;;;;;;;12.13;88.84;90298.91;4983859;28;20607;-87
2021/06/22 03:16:14;;;;;;;3.78;1.83;;;;;;;12.11;88.97;90306.34;4995667;28;20029;-87
2021/06/22 03:18:44;;;;;;;3.45;1.98;;;;;;;12.06;89.23;90307.41;4994535;28;20117;-86
2021/06/22 03:21:14;;;;;;;2.85;1.70;;;;;;;12.10;89.23;90307.44;4976975;28;20021;-87
2021/06/22 03:23:41;;;;;;;6.93;2.10;;;;;;;12.10;89.13;90305.59;5011526;28;20032;-87
2021/06/22 03:26:08;;;;;;;4.43;1.80;;;;;;;12.10;88.98;90307.44;4994227;28;20029;-87
2021/06/22 03:28:34;;;;;;;3.63;1.75;;;;;;;12.10;89.00;90310.81;4994218;28;20029;-88
2021/06/22 03:31:07;;;;;;;2.72;1.77;;;;;;;12.00;88.50;90295.72;5011255;28;20057;-86
2021/06/22 03:33:35;;;;;;;7.07;1.90;;;;;;;11.95;88.47;90302.00;4977654;28;20488;-87
2021/06/22 03:36:03;;;;;;;4.45;2.10;;;;;;;12.02;88.50;90303.22;4993903;28;20029;-84
2021/06/22 03:38:37;;;;;;;5.20;1.73;;;;;;;12.05;88.36;90307.72;4977519;28;20025;-86
2021/06/22 03:41:05;;;;;;;2.45;1.27;;;;;;;12.05;88.71;90312.94;5011089;28;20080;-87
2021/06/22 03:43:32;;;;;;;5.25;1.70;;;;;;;11.98;88.23;90310.22;4977766;28;20510;-86
2021/06/22 03:45:59;;;;;;;4.07;1.67;;;;;;;12.04;88.02;90317.44;4977539;28;20036;-87
2021/06/22 03:48:25;;;;;;;3.53;1.70;;;;;;;12.03;88.20;90309.94;4993877;28;20049;-86
2021/06/22 03:51:03;;;;;;;3.90;1.80;;;;;;;12.05;88.75;90307.72;4973713;28;20399;-87
2021/06/22 03:53:38;;;;;;;7.18;2.00;;;;;;;11.99;88.91;90298.72;4974773;28;20022;-87
2021/06/22 03:56:07;;;;;;;3.08;1.52;;;;;;;11.98;88.73;90300.56;4958687;28;20109;-86
2021/06/22 03:58:35;;;;;;;3.35;1.60;;;;;;;12.06;88.10;90306.66;4991389;28;20509;-86
2021/06/22 04:01:03;;;;;;;2.85;1.45;;;;;;;12.07;88.38;90308.91;4973944;28;20033;-87
2021/06/22 04:03:29;;;;;;;4.32;1.42;;;;;;;12.00;88.94;90305.44;4958222;28;20022;-87
2021/06/22 04:06:03;;;;;;;4.05;1.85;;;;;;;12.01;88.52;90301.69;4942003;28;20500;-87
2021/06/22 04:08:39;;;;;;;2.67;1.40;;;;;;;12.00;89.29;90313.25;4958778;28;20030;-87
2021/06/22 04:11:16;;;;;;;8.13;1.58;;;;;;;12.02;88.79;90314.44;4973985;28;20040;-86
2021/06/22 04:13:47;;;;;;;2.88;1.48;;;;;;;12.08;88.58;90313.00;4942938;28;20038;-87
2021/06/22 04:16:15;;;;;;;2.85;1.48;;;;;;;12.13;88.54;90312.72;4958217;28;20057;-87
2021/06/22 04:18:42;;;;;;;3.83;1.67;;;;;;;12.14;88.82;90319.44;4973656;28;20407;-87
2021/06/22 04:21:09;;;;;;;5.03;1.70;;;;;;;12.17;88.38;90320.59;4976698;28;20033;-85
2021/06/22 04:23:34;;;;;;;2.55;1.35;;;;;;;12.14;88.44;90321.31;4993320;28;20025;-87
2021/06/22 04:26:01;;;;;;;2.50;1.27;;;;;;;12.13;88.66;90323.16;4977330;28;20026;-87
2021/06/22 04:28:27;;;;;;;4.00;1.30;;;;;;;12.19;88.49;90323.59;4993154;28;20372;-86
2021/06/22 04:30:54;;;;;;;6.63;1.70;;;;;;;12.17;88.71;90328.44;4992904;28;20080;-88
2021/06/22 04:33:23;;;;;;;2.78;1.67;;;;;;;12.16;88.90;90327.69;5014091;28;20026;-87
2021/06/22 04:35:58;;;;;;;1.98;1.27;;;;;;;12.16;88.94;90329.56;4981401;28;20410;-88
2021/06/22 04:38:34;;;;;;;1.73;1.20;;;;;;;12.16;88.28;90326.94;4998131;28;20030;-87
2021/06/22 04:41:09;;;;;;;2.83;1.30;;;;;;;12.19;88.38;90326.22;4997434;28;20034;-86
2021/06/22 04:43:37;;;;;;;2.40;1.40;;;;;;;12.17;88.73;90328.44;4980619;28;20120;-86
2021/06/22 04:46:03;;;;;;;5.57;1.25;;;;;;;12.18;88.29;90332.56;5014046;28;20029;-87
2021/06/22 04:48:38;;;;;;;3.05;1.10;;;;;;;12.18;88.60;90333.31;4980275;28;20092;-87
2021/06/22 04:51:05;;;;;;;5.10;1.15;;;;;;;12.19;88.77;90332.22;4996385;28;20037;-86
2021/06/22 04:53:32;;;;;;;2.25;1.40;;;;;;;12.22;89.03;90330.75;5014140;28;20392;-87
2021/06/22 04:55:59;;;;;;;4.28;1.80;;;;;;;12.22;88.65;90335.97;4996509;28;20026;-87
2021/06/22 04:58:32;;;;;;;3.20;1.60;;;;;;;12.19;88.74;90344.50;4977171;28;20022;-87
2021/06/22 05:01:01;;;;;;;6.95;1.70;;;;;;;12.22;89.78;90346.41;4960718;28;20488;-87
2021/06/22 05:03:28;;;;;;;4.93;1.42;;;;;;;12.13;88.65;90345.94;4960875;28;20110;-87
2021/06/22 05:05:54;;;;;;;3.45;1.27;;;;;;;12.18;89.24;90343.75;4961070;28;20105;-87
2021/06/22 05:08:22;;;;;;;3.35;1.45;;;;;;;12.27;88.77;90346.13;4976989;28;20483;-87
2021/06/22 05:10:48;;;;;;;2.72;1.20;;;;;;;12.31;88.34;90354.78;4960295;28;20048;-88
2021/06/22 05:13:13;;;;;;;3.47;1.33;;;;;;;12.32;88.74;90371.94;4953342;28;20499;-88
2021/06/22 05:15:39;;;;;;;3.35;1.40;;;;;;;12.31;89.18;90365.22;4997033;28;20401;-86
2021/06/22 05:18:07;;;;;;;1.90;1.10;;;;;;;12.36;88.53;90369.38;4998565;28;20022;-87
2021/06/22 05:20:36;;;;;;;2.55;1.40;;;;;;;12.32;89.00;90376.44;4976890;28;20030;-87
2021/06/22 05:23:03;;;;;;;5.15;1.60;;;;;;;12.50;88.70;90382.66;4982479;28;20029;-87
2021/06/22 05:25:31;;;;;;;2.95;1.67;;;;;;;12.46;88.61;90388.94;4960861;28;20037;-87
2021/06/22 05:28:01;;;;;;;2.35;1.60;;;;;;;12.47;88.25;90395.66;4960634;28;20034;-87
2021/06/22 05:30:41;;;;;;;2.88;1.35;;;;;;;12.40;88.96;90399.72;4993867;28;20400;-85
2021/06/22 05:33:08;;;;;;;4.10;1.42;;;;;;;12.50;88.92;90402.81;5012335;28;20036;-85
2021/06/22 05:35:37;;;;;;;2.50;1.20;;;;;;;12.50;87.38;90408.03;5012343;28;20025;-86
2021/06/22 05:38:04;;;;;;;1.75;1.13;;;;;;;12.52;87.82;90406.59;5012396;28;20516;-86
2021/06/22 05:40:30;;;;;;;2.70;1.23;;;;;;;12.44;87.92;90397.91;5011674;28;20030;-88
2021/06/22 05:42:58;;;;;;;3.22;1.08;;;;;;;12.42;88.39;90405.31;5011952;28;20022;-87
2021/06/22 05:45:25;;;;;;;2.80;1.23;;;;;;;12.41;88.20;90406.44;5009198;28;20025;-86
2021/06/22 05:47:52;;;;;;;2.22;1.23;;;;;;;12.43;88.20;90391.16;5011964;28;20545;-87
2021/06/22 05:50:18;;;;;;;3.22;1.10;;;;;;;12.51;87.10;90397.25;4995108;28;20022;-87
2021/06/22 05:52:49;;;;;;;2.40;1.23;;;;;;;12.49;86.77;90398.69;4976041;28;20022;-87
2021/06/22 05:55:22;;;;;;;1.63;1.00;;;;;;;12.49;84.50;90393.47;4944243;28;20058;-87
2021/06/22 05:57:53;;;;;;;2.90;1.00;;;;;;;12.56;85.48;90406.66;4995022;28;20353;-87
2021/06/22 06:00:22;;;;;;;1.92;1.10;;;;;;;12.47;86.46;90408.75;4980624;28;20080;-87
2021/06/22 06:02:49;;;;;;;3.97;1.40;;;;;;;12.34;86.01;90401.09;5011805;28;20045;-87
2021/06/22 06:05:16;;;;;;;3.35;1.75;;;;;;;12.49;86.95;90398.69;5014305;28;20029;-87
2021/06/22 06:07:43;;;;;;;3.80;1.40;;;;;;;12.41;85.84;90398.59;5011777;28;20117;-87
2021/06/22 06:10:11;;;;;;;4.20;1.70;;;;;;;12.34;85.62;90397.75;4978541;28;20025;-87
2021/06/22 06:12:38;;;;;;;3.22;1.52;;;;;;;12.59;85.96;90395.50;4969535;28;20027;-87
2021/06/22 06:15:05;;;;;;;5.38;1.65;;;;;;;12.50;86.68;90400.19;4981370;28;20041;-87
2021/06/22 06:17:31;;;;;;;4.32;1.50;;;;;;;12.58;87.71;90409.63;4978867;28;20026;-88
2021/06/22 06:19:58;;;;;;;3.90;1.63;;;;;;;12.55;87.96;90412.97;5010500;28;20080;-87
2021/06/22 06:22:24;;;;;;;2.53;1.60;;;;;;;12.50;88.46;90421.09;4991964;28;20092;-87
2021/06/22 06:24:54;;;;;;;2.22;1.42;;;;;;;12.52;88.96;90418.91;5011078;28;20093;-86
2021/06/22 06:27:26;;;;;;;4.03;1.80;;;;;;;12.52;89.26;90424.88;5011908;28;20034;-87
2021/06/22 06:32:20;;;;;;;2.88;1.80;;;;;;;12.63;89.65;90427.66;4978618;28;20026;-87
2021/06/22 06:34:46;;;;;;;3.60;1.23;;;;;;;12.65;89.55;90438.53;4994731;28;20021;-87
2021/06/22 06:37:12;;;;;;;3.55;1.33;;;;;;;12.68;89.82;90437.81;5012141;28;20022;-87
2021/06/22 06:39:37;;;;;;;3.13;1.50;;;;;;;12.71;89.49;90442.31;4994732;28;20369;-87
2021/06/22 06:42:04;;;;;;;4.75;1.73;;;;;;;12.69;89.32;90441.94;4994302;28;20542;-87
2021/06/22 06:44:31;;;;;;;3.78;1.55;;;;;;;12.76;88.88;90439.44;5012183;28;20041;-87
2021/06/22 06:47:01;;;;;;;5.97;1.83;;;;;;;12.71;87.91;90431.88;4994157;28;20503;-87
2021/06/22 06:49:28;;;;;;;3.15;1.45;;;;;;;12.78;88.21;90431.22;4975385;28;20559;-86
2021/06/22 06:51:54;;;;;;;6.30;1.95;;;;;;;12.84;88.99;90437.66;4975081;28;20030;-87
2021/06/22 06:54:19;;;;;;;5.15;1.77;;;;;;;12.89;88.56;90430.25;4974025;28;20045;-87
2021/06/22 06:56:44;;;;;;;3.42;1.77;;;;;;;13.00;87.43;90424.41;4974993;28;20038;-87
2021/06/22 06:59:10;;;;;;;2.67;1.52;;;;;;;13.05;87.70;90424.88;4942365;28;20030;-87
2021/06/22 07:01:35;;;;;;;4.40;1.70;;;;;;;13.16;87.28;90430.25;4974500;28;20030;-87
2021/06/22 07:04:01;;;;;;;4.05;1.60;;;;;;;13.27;87.76;90435.63;4976753;28;20030;-87
2021/06/22 07:06:26;;;;;;;4.72;2.10;;;;;;;13.30;87.19;90435.69;4994242;28;20029;-87
2021/06/22 07:08:57;;;;;;;2.88;1.80;;;;;;;13.34;87.47;90440.97;4977628;28;20037;-88
2021/06/22 07:11:25;;;;;;;2.40;1.63;;;;;;;13.38;86.80;90442.50;4977329;28;20512;-87
2021/06/22 07:13:53;;;;;;;2.33;1.77;;;;;;;13.25;85.92;90440.47;4978296;28;20032;-87
2021/06/22 07:16:20;;;;;;;5.35;2.20;;;;;;;13.15;86.25;90449.66;4977702;28;20452;-86
2021/06/22 07:18:47;;;;;;;6.07;2.00;;;;;;;13.06;86.60;90451.78;4978200;28;20395;-87
2021/06/22 07:21:18;;;;;;;4.43;1.75;;;;;;;13.02;87.60;90462.19;4997232;28;20017;-87
2021/06/22 07:23:45;;;;;;;4.40;1.90;;;;;;;13.09;86.96;90472.00;5010238;28;20387;-87
2021/06/22 07:26:12;;;;;;;2.90;1.77;;;;;;;13.08;87.56;90476.50;5010353;28;20022;-86
2021/06/22 07:28:38;;;;;;;6.47;1.75;;;;;;;13.32;86.23;90483.19;5010045;28;20394;-87
2021/06/22 07:31:11;;;;;;;2.20;1.58;;;;;;;13.27;86.03;90493.94;5009670;28;20034;-87
2021/06/22 07:33:39;;;;;;;3.70;2.10;;;;;;;13.11;87.88;90495.97;4994380;28;20030;-87
2021/06/22 07:36:09;;;;;;;7.72;2.33;;;;;;;12.98;87.70;90495.41;5012803;28;20032;-87
2021/06/22 07:38:36;;;;;;;5.55;2.05;;;;;;;13.19;85.49;90486.34;5026525;28;20563;-87
2021/06/22 07:41:04;;;;;;;3.85;1.88;;;;;;;13.19;85.34;90475.88;4996422;28;20121;-87
2021/06/22 07:43:31;;;;;;;3.03;1.58;;;;;;;13.23;85.07;90472.19;4974221;28;20033;-86
2021/06/22 07:45:56;;;;;;;5.00;1.92;;;;;;;13.25;85.87;90459.56;4974005;28;20117;-88
2021/06/22 07:48:21;;;;;;;3.97;1.92;;;;;;;13.34;87.16;90462.63;4974459;28;20038;-87
2021/06/22 07:50:47;;;;;;;4.43;2.20;;;;;;;13.37;87.39;90467.16;5008463;28;20026;-87
2021/06/22 07:53:13;;;;;;;4.82;2.10;;;;;;;13.43;87.89;90482.56;5009682;28;20022;-87
2021/06/22 07:55:38;;;;;;;5.65;1.70;;;;;;;13.50;86.88;90487.88;5010119;28;20026;-86
2021/06/22 07:58:04;;;;;;;5.28;1.90;;;;;;;13.52;86.57;90493.50;5009449;28;20025;-87
2021/06/22 08:00:43;;;;;;;3.70;1.65;;;;;;;13.51;86.48;90492.00;4992642;28;20041;-87
2021/06/22 08:03:13;;;;;;;3.50;1.73;;;;;;;13.44;85.75;90486.69;5011273;28;20026;-86
2021/06/22 08:05:39;;;;;;;3.92;2.15;;;;;;;13.50;86.55;90475.56;4995112;28;20018;-87
2021/06/22 08:08:05;;;;;;;6.45;2.00;;;;;;;13.67;85.66;90463.78;4977945;28;20083;-86
2021/06/22 08:10:31;;;;;;;2.67;1.65;;;;;;;13.67;84.61;90466.38;4977275;28;20105;-87
2021/06/22 08:12:58;;;;;;;5.00;1.63;;;;;;;13.56;82.06;90465.50;5019339;23;20423;-86
2021/06/22 08:15:24;;;;;;;3.03;1.65;;;;;;;13.57;83.17;90465.19;4998015;28;20168;-87
2021/06/22 08:17:49;;;;;;;3.10;1.58;;;;;;;13.70;82.42;90473.53;4982051;28;20037;-87
2021/06/22 08:20:15;;;;;;;9.27;1.50;;;;;;;13.58;83.09;90468.53;4981620;28;20034;-86
2021/06/22 08:22:41;;;;;;;2.63;1.30;;;;;;;13.48;82.13;90475.16;4951778;28;20030;-86
2021/06/22 08:25:07;;;;;;;2.15;1.20;;;;;;;13.33;82.77;90471.59;4946456;28;20030;-86
2021/06/22 08:27:32;;;;;;;4.18;1.27;;;;;;;13.28;84.35;90484.97;4957552;28;20406;-86
2021/06/22 08:29:58;;;;;;;2.05;1.05;;;;;;;13.41;84.26;90485.53;4958620;28;20033;-86
2021/06/22 08:32:23;;;;;;;2.85;1.13;;;;;;;13.32;83.00;90480.56;4943071;28;20034;-86
2021/06/22 08:34:49;;;;;;;3.17;1.10;;;;;;;13.31;81.96;90497.38;4983035;28;20026;-86
2021/06/22 08:37:14;;;;;;;2.00;0.90;;;;;;;13.34;80.20;90501.16;4962069;28;20039;-87
2021/06/22 08:39:40;;;;;;;1.63;0.95;;;;;;;13.24;83.02;90494.66;4977807;28;20030;-86
2021/06/22 08:42:06;;;;;;;1.40;0.90;;;;;;;13.33;82.39;90497.03;4961989;28;20026;-86
2021/06/22 08:44:33;;;;;;;2.20;0.77;;;;;;;13.39;82.20;90503.44;4978167;28;20488;-85
2021/06/22 08:47:00;;;;;;;2.75;0.77;;;;;;;13.46;80.53;90505.41;4977777;28;20166;-86
2021/06/22 08:49:29;;;;;;;2.45;1.00;;;;;;;13.48;80.87;90503.19;4961980;28;20018;-87
2021/06/22 08:51:56;;;;;;;3.92;1.00;;;;;;;13.81;81.15;90503.22;4977700;28;20481;-86
2021/06/22 08:54:22;;;;;;;1.10;0.70;;;;;;;13.91;81.02;90511.56;4957030;28;20142;-86
2021/06/22 08:56:52;;;;;;;2.53;0.98;;;;;;;13.99;78.44;90515.75;4961747;28;20165;-86
2021/06/22 08:59:18;;;;;;;1.02;0.70;;;;;;;13.84;78.60;90514.84;4974152;28;20019;-86
2021/06/22 09:01:44;;;;;;;1.40;0.90;;;;;;;13.76;79.65;90514.00;4960151;28;20049;-86
2021/06/22 09:04:09;;;;;;;1.65;0.90;;;;;;;13.72;80.47;90507.97;4990700;28;20050;-85
2021/06/22 09:06:39;;;;;;;4.85;0.77;;;;;;;13.72;80.32;90505.38;4926668;28;20030;-86
2021/06/22 09:09:05;;;;;;;2.95;0.95;;;;;;;13.71;82.45;90509.09;4958520;28;20033;-86
2021/06/22 09:11:31;;;;;;;1.52;1.00;;;;;;;13.63;80.16;90507.50;4946560;28;20060;-86
2021/06/22 09:14:01;;;;;;;1.83;0.80;;;;;;;13.55;80.47;90511.13;4977808;28;20750;-86
2021/06/22 09:16:27;;;;;;;1.70;0.90;;;;;;;13.48;82.33;90508.44;4970908;28;20018;-86
2021/06/22 09:18:52;;;;;;;3.42;1.00;;;;;;;13.47;82.58;90512.16;4945671;28;20030;-86
2021/06/22 09:21:22;;;;;;;1.70;0.90;;;;;;;13.54;82.80;90514.88;4975002;28;20026;-86
2021/06/22 09:23:47;;;;;;;1.98;1.00;;;;;;;13.49;83.03;90510.69;4977949;28;20438;-86
2021/06/22 09:26:18;;;;;;;1.60;0.90;;;;;;;13.52;82.42;90509.22;4993651;28;20018;-86
2021/06/22 09:28:43;;;;;;;2.78;1.00;;;;;;;13.56;83.71;90510.03;4977605;28;20050;-86
2021/06/22 09:31:11;;;;;;;2.30;1.10;;;;;;;13.54;80.01;90504.41;4960849;28;20122;-85
2021/06/22 09:33:51;;;;;;;3.85;1.08;;;;;;;13.56;82.03;90515.25;4931949;28;20039;-86
2021/06/22 09:36:26;;;;;;;3.80;1.08;;;;;;;13.59;82.39;90514.53;4975050;28;20022;-86
2021/06/22 09:39:05;;;;;;;2.75;1.27;;;;;;;13.58;84.35;90523.53;4958295;28;20098;-86
2021/06/22 09:41:32;;;;;;;4.40;1.08;;;;;;;13.57;83.09;90527.25;4957793;28;20030;-86
2021/06/22 09:44:04;;;;;;;3.05;1.13;;;;;;;13.80;81.25;90530.50;4941698;28;20102;-86
2021/06/22 09:46:51;;;;;;;3.63;1.30;;;;;;;13.67;81.51;90544.94;4958296;28;20031;-86
2021/06/22 09:49:18;;;;;;;3.35;1.20;;;;;;;13.55;83.61;90547.78;4971389;28;20030;-84
2021/06/22 09:52:10;;;;;;;4.15;1.52;;;;;;;13.48;83.66;90560.78;4994059;28;20028;-85
2021/06/22 09:54:48;;;;;;;3.30;1.10;;;;;;;13.49;84.26;90551.81;4966958;28;20026;-86
2021/06/22 09:57:18;;;;;;;2.58;1.30;;;;;;;13.56;84.21;90547.41;4961248;28;20037;-86
2021/06/22 09:59:52;;;;;;;2.45;1.08;;;;;;;13.65;84.57;90560.25;4960297;28;20105;-86
2021/06/22 10:02:24;;;;;;;2.95;1.30;;;;;;;13.91;84.77;90550.84;4961054;28;20062;-86
2021/06/22 10:04:54;;;;;;;2.47;1.17;;;;;;;14.09;84.45;90546.56;4961323;28;20033;-86
2021/06/22 10:07:25;;;;;;;3.30;1.30;;;;;;;14.23;82.21;90545.97;4961260;28;20027;-86
2021/06/22 10:09:53;;;;;;;5.30;1.50;;;;;;;14.27;80.12;90552.75;4977263;28;20222;-86
2021/06/22 10:12:20;;;;;;;3.60;1.30;;;;;;;14.35;80.18;90553.59;4976991;28;20026;-86
2021/06/22 10:14:53;;;;;;;3.92;1.30;;;;;;;14.46;79.24;90543.97;4960627;28;20046;-86
2021/06/22 10:17:23;;;;;;;4.93;1.52;;;;;;;14.44;82.28;90545.44;4977585;28;20704;-86
2021/06/22 10:19:53;;;;;;;4.40;1.70;;;;;;;14.64;83.37;90541.53;4976322;28;20027;-86
2021/06/22 10:22:22;;;;;;;5.03;1.98;;;;;;;14.95;82.46;90545.53;4976127;28;20030;-86
2021/06/22 10:24:48;;;;;;;5.95;1.90;;;;;;;15.24;81.25;90546.50;4947325;28;20034;-87
2021/06/22 10:27:15;;;;;;;2.75;1.88;;;;;;;15.33;81.50;90545.44;4940994;28;20030;-87
2021/06/22 10:29:43;;;;;;;4.60;1.60;;;;;;;15.39;80.70;90546.59;4924733;28;20035;-86
2021/06/22 10:32:09;;;;;;;5.03;2.00;;;;;;;15.70;81.75;90548.69;4925135;28;20452;-85
2021/06/22 10:34:39;;;;;;;2.63;1.55;;;;;;;15.89;78.72;90552.16;4940883;28;20434;-84
2021/06/22 10:37:11;;;;;;;4.63;1.48;;;;;;;15.94;77.87;90546.56;4956752;28;20030;-84
2021/06/22 10:39:51;;;;;;;2.40;1.50;;;;;;;16.19;78.41;90550.03;4956846;28;20492;-86
2021/06/22 10:42:18;;;;;;;3.88;1.85;;;;;;;16.25;81.57;90553.81;4973921;28;20031;-84
2021/06/22 10:44:45;;;;;;;2.83;1.60;;;;;;;15.89;75.73;90554.78;4940331;28;20477;-86
2021/06/22 10:47:25;;;;;;;3.22;1.17;;;;;;;16.14;76.87;90560.88;4956662;28;20031;-85
2021/06/22 10:50:00;;;;;;;1.17;0.88;;;;;;;16.11;70.85;90561.63;4973750;28;20392;-86
2021/06/22 10:52:41;;;;;;;1.92;1.17;;;;;;;16.19;72.76;90560.53;4940271;28;20023;-86
2021/06/22 10:55:10;;;;;;;2.88;1.10;;;;;;;16.30;73.41;90552.69;4973508;28;20027;-86
2021/06/22 10:57:54;;;;;;;7.53;1.23;;;;;;;16.44;71.22;90554.59;4940622;28;20023;-86
2021/06/22 11:00:26;;;;;;;2.65;1.30;;;;;;;16.38;73.30;90563.97;4973274;28;20026;-86
2021/06/22 11:03:06;;;;;;;2.40;1.20;;;;;;;16.36;76.00;90566.22;4956235;28;20062;-85
2021/06/22 11:05:34;;;;;;;1.20;0.82;;;;;;;16.37;69.76;90563.22;4970435;28;20509;-86
2021/06/22 11:08:09;;;;;;;3.22;1.10;;;;;;;16.44;71.77;90555.34;4960509;28;20057;-87
2021/06/22 11:10:36;;;;;;;2.47;1.13;;;;;;;16.51;73.15;90552.00;4992778;28;20511;-86
2021/06/22 11:13:02;;;;;;;1.77;1.25;;;;;;;16.69;75.09;90547.50;4959080;28;20056;-86
2021/06/22 11:15:47;;;;;;;3.33;1.08;;;;;;;16.70;70.58;90548.25;4959026;28;20492;-86
2021/06/22 11:18:16;;;;;;;2.45;1.20;;;;;;;16.83;72.20;90546.06;4975287;28;20022;-86
2021/06/22 11:20:46;;;;;;;2.55;1.27;;;;;;;16.77;74.47;90550.19;4959795;28;20431;-87
2021/06/22 11:23:14;;;;;;;3.38;1.30;;;;;;;16.89;75.13;90545.31;4957446;28;20118;-87
2021/06/22 11:25:52;;;;;;;4.32;1.40;;;;;;;17.09;72.96;90539.69;4956527;28;20031;-85
2021/06/22 11:28:20;;;;;;;3.78;1.60;;;;;;;17.34;73.94;90543.03;4973109;28;20046;-86
2021/06/22 11:30:59;;;;;;;3.03;1.50;;;;;;;17.32;74.12;90540.06;4971768;28;20102;-86
2021/06/22 11:33:28;;;;;;;3.40;1.40;;;;;;;17.41;71.96;90547.56;4941336;28;20050;-87
2021/06/22 11:36:19;;;;;;;1.75;1.30;;;;;;;17.24;75.73;90550.94;4971872;28;20026;-85
2021/06/22 11:39:21;;;;;;;1.50;1.02;;;;;;;17.38;71.22;90540.41;4974407;28;20110;-87
2021/06/22 11:44:37;;;;;;;1.67;1.17;;;;;;;17.44;71.63;90546.81;4993371;28;20039;-86
2021/06/22 11:47:03;;;;;;;2.88;1.23;;;;;;;17.36;69.09;90546.06;4959880;28;20027;-86
2021/06/22 11:49:39;;;;;;;3.30;1.15;;;;;;;17.45;68.48;90550.94;4932077;28;20464;-87